Terminal Aerodrome Forecast
Issued by NWS

Home | Current Version | Previous Version | Text Only | Print | Product List | Glossary On
Versions: 1 2 3 4 5 6 7 8 9 10 11 12 13 14 15 16 17 18 19 20 21 22 23 24 25
000
FTUS45 KGJT 031122
TAFGUC
TAF
KGUC 031122Z 0312/0412 VRB03KT P6SM SKC
     FM031800 26008KT P6SM SCT100 BKN180
     FM032100 28010G20KT P6SM BKN150
     FM040200 32005KT P6SM SCT150
     FM040600 VRB04KT P6SM FEW200=

USA.gov is the U.S. government's official web portal to all federal, state and local government web resources and services.